LEBZ/BJZ METAR and TAF weather

Enter ICAO airport designator
Station Type Date Time Source
LEBZ METAR 2021/04/16 19:00 UTC NOAA

LEBZ 161900Z VRB01KT CAVOK 18/14 Q1014


Station Type Date Time Source
LEBZ Decoded METAR 2021/04/16 19:00 UTC NOAA

Badajoz / Talavera La Real, Spain (LEBZ) 38-53N 006-49W 192M
Apr 16, 2021 - 03:00 PM EDT / 2021.04.16 1900 UTC
Wind: Variable at 1 MPH (1 KT):0
Visibility: greater than 7 mile(s):0
Temperature: 64 F (18 C)
Dew Point: 57 F (14 C)
Relative Humidity: 77%
Pressure (altimeter): 29.94 in. Hg (1014 hPa)
ob: LEBZ 161900Z VRB01KT CAVOK 18/14 Q1014
cycle: 19

Station Type Date Time Source
LEBZ TAF 2021/04/16 18:27 UTC NOAA

TAF LEBZ 161700Z 1618/1718 08006KT 9999 FEW040 TX22/1715Z TN09/1706Z

Example: see airport list